Aérodrome :
LOGIN :

S'inscrire | Disclaimer

   EN    FR    IT 

 










Légende :    VFR   VFR Marginal   IFR   IFR Intensif   IFR Très Intensif
Visi : 
Plafond : 
>= 8 km
>= 3000ft
5 à 8 km
1000 à 3000 ft
1500m à 5 km
500 à 1000 ft
800 à 1500m
200 à 500 ft
< 800m
< 200 ft
Symboles :   Orages  Brouillard  Fortes neiges  Fortes précipitations  Vent > 20 kt
SIGMETs :   Divers  Orages  Givrage  Turbulence  Onde Orograph.  Cendres Volcan.






- Altitude de l'aérodrome : 463 ft
- Code IATA : SZY
- AEROPORT FERMÉ.


EPSY - Szczytno

DERNIER METAR :
  • 211400Z 12011KT 060V160 9999 BKN009 05/03 Q1020

METARs EXPIRÉS :
  • 211330Z 12012KT 080V150 9999 BKN009 OVC012 05/03 Q1020
  • 211300Z 13013G24KT 090V160 9999 BKN009 OVC012 05/04 Q1020
  • 211230Z 12011KT 070V200 9999 BKN009 OVC012 05/04 Q1021
  • 211200Z 12010KT 070V160 9999 BKN008 OVC011 05/04 Q1021
  • 211130Z 12010KT 070V170 9999 BKN006 OVC008 05/04 Q1021

TAF TAF EPSY
Valide du 21 à 12h jusqu'au 21 à 21h UTC


211130Z 2112/2121 12010KT 9999 BKN010
PROB40
TEMPO 2112/2121 12015G25KT 4000 -DZRA BR BKN006 OVC010



MET'MAP, la Météo Aéronautique d'un coup d'oeil ! - Copyright ORBIFLY Décembre 2007 - Disclaimer

ORBIFLY MET'MAP TEAM :

Programmation & Développement : Alexandra Zaïnal
Conception & Développement : Baudouin d'Aumeries
Co-Programmation & Développement : Marc-Olivier Méhu
Soutien technique & logistique : Manuel Goepfert

Contact : metmap@orbifly.com




SOURCES & CREDITS :

   NOAA